Search for airport 
image banner adimage banner adimage banner ad
image banner ad

90CL - Diamond M Ranch

Located in Elk Creek, United States

ICAO - 90CL, IATA -

Data provided by Airmate  

General information

Coordinates: N39°34'20" W122°36'34"
Elevation is 1296 feet MSL.
Magnetic variation is 17° East
View others Airports in California

Operational data

Special qualification required
Current time UTC:
Current local time:
Weather at : KCIC - Chico Muni ( 69 km )
METAR: KCIC 211215Z AUTO 00000KT 10SM CLR 23/04 A2981 RMK AO1
View NOTAMs / SUP AIP / TFR affecting this airport [VIEW]
Communications frequencies: [VIEW]

Runways:

RWY identifierQFULength (ft)Width (ft)SurfaceLDA (ft)
09240075GRASS
27240075GRASS

Airport contact information

Address: Elk Creek United States

Satellite view of 90CL